sensor_id;sensor_type;location;lat;lon;timestamp;pressure;altitude;pressure_sealevel;temperature;humidity
64253;BME280;50592;52.958;-7.470;2023-04-26T00:00:00;100549.94;;;6.82;100.00
64253;BME280;50592;52.958;-7.470;2023-04-26T00:02:26;100555.66;;;6.76;100.00
64253;BME280;50592;52.958;-7.470;2023-04-26T00:04:52;100549.25;;;6.80;100.00
64253;BME280;50592;52.958;-7.470;2023-04-26T00:07:23;100555.44;;;6.79;100.00
64253;BME280;50592;52.958;-7.470;2023-04-26T00:09:50;100559.28;;;6.86;100.00
64253;BME280;50592;52.958;-7.470;2023-04-26T00:12:19;100546.59;;;6.91;100.00
64253;BME280;50592;52.958;-7.470;2023-04-26T00:14:46;100558.34;;;6.99;100.00
64253;BME280;50592;52.958;-7.470;2023-04-26T00:17:12;100546.84;;;7.00;100.00
64253;BME280;50592;52.958;-7.470;2023-04-26T00:19:37;100542.44;;;7.00;100.00
64253;BME280;50592;52.958;-7.470;2023-04-26T00:22:04;100539.22;;;6.97;100.00
64253;BME280;50592;52.958;-7.470;2023-04-26T00:24:31;100538.59;;;6.93;100.00
64253;BME280;50592;52.958;-7.470;2023-04-26T00:26:57;100535.28;;;6.91;100.00
64253;BME280;50592;52.958;-7.470;2023-04-26T00:29:23;100531.56;;;6.82;100.00
64253;BME280;50592;52.958;-7.470;2023-04-26T00:31:48;100522.72;;;6.72;100.00
64253;BME280;50592;52.958;-7.470;2023-04-26T00:34:14;100526.50;;;6.67;100.00
64253;BME280;50592;52.958;-7.470;2023-04-26T00:36:41;100524.84;;;6.66;100.00
64253;BME280;50592;52.958;-7.470;2023-04-26T00:39:07;100521.63;;;6.74;100.00
64253;BME280;50592;52.958;-7.470;2023-04-26T00:41:34;100523.53;;;6.83;100.00
64253;BME280;50592;52.958;-7.470;2023-04-26T00:43:59;100524.16;;;6.87;100.00
64253;BME280;50592;52.958;-7.470;2023-04-26T00:46:26;100511.13;;;6.86;100.00
64253;BME280;50592;52.958;-7.470;2023-04-26T00:48:54;100511.97;;;6.86;100.00
64253;BME280;50592;52.958;-7.470;2023-04-26T00:51:20;100516.75;;;6.81;100.00
64253;BME280;50592;52.958;-7.470;2023-04-26T00:53:46;100502.06;;;6.78;100.00
64253;BME280;50592;52.958;-7.470;2023-04-26T00:56:15;100506.97;;;6.83;100.00
64253;BME280;50592;52.958;-7.470;2023-04-26T00:58:41;100505.75;;;6.87;100.00
64253;BME280;50592;52.958;-7.470;2023-04-26T01:01:07;100495.75;;;6.92;100.00
64253;BME280;50592;52.958;-7.470;2023-04-26T01:03:32;100491.06;;;6.96;100.00
64253;BME280;50592;52.958;-7.470;2023-04-26T01:05:59;100493.56;;;6.98;100.00
64253;BME280;50592;52.958;-7.470;2023-04-26T01:08:26;100495.16;;;7.00;100.00
64253;BME280;50592;52.958;-7.470;2023-04-26T01:10:52;100492.03;;;6.95;100.00
64253;BME280;50592;52.958;-7.470;2023-04-26T01:13:18;100488.91;;;6.90;100.00
64253;BME280;50592;52.958;-7.470;2023-04-26T01:15:46;100490.97;;;6.86;100.00
64253;BME280;50592;52.958;-7.470;2023-04-26T01:18:13;100485.09;;;6.82;100.00
64253;BME280;50592;52.958;-7.470;2023-04-26T01:20:42;100488.94;;;6.78;100.00
64253;BME280;50592;52.958;-7.470;2023-04-26T01:23:09;100490.94;;;6.75;100.00
64253;BME280;50592;52.958;-7.470;2023-04-26T01:25:37;100490.84;;;6.76;100.00
64253;BME280;50592;52.958;-7.470;2023-04-26T01:28:03;100480.09;;;6.79;100.00
64253;BME280;50592;52.958;-7.470;2023-04-26T01:30:29;100485.34;;;6.79;100.00
64253;BME280;50592;52.958;-7.470;2023-04-26T01:32:55;100483.56;;;6.80;100.00
64253;BME280;50592;52.958;-7.470;2023-04-26T01:35:21;100482.59;;;6.81;100.00
64253;BME280;50592;52.958;-7.470;2023-04-26T01:37:47;100484.50;;;6.79;100.00
64253;BME280;50592;52.958;-7.470;2023-04-26T01:40:12;100487.47;;;6.74;100.00
64253;BME280;50592;52.958;-7.470;2023-04-26T01:42:38;100482.69;;;6.68;100.00
64253;BME280;50592;52.958;-7.470;2023-04-26T01:45:04;100482.44;;;6.60;100.00
64253;BME280;50592;52.958;-7.470;2023-04-26T01:47:50;100485.66;;;6.52;100.00
64253;BME280;50592;52.958;-7.470;2023-04-26T01:50:16;100483.16;;;6.50;100.00
64253;BME280;50592;52.958;-7.470;2023-04-26T01:52:42;100483.38;;;6.47;100.00
64253;BME280;50592;52.958;-7.470;2023-04-26T01:55:08;100476.59;;;6.44;100.00
64253;BME280;50592;52.958;-7.470;2023-04-26T01:57:34;100473.22;;;6.42;100.00
64253;BME280;50592;52.958;-7.470;2023-04-26T02:00:00;100474.91;;;6.43;100.00
64253;BME280;50592;52.958;-7.470;2023-04-26T02:02:39;100469.75;;;6.42;100.00
64253;BME280;50592;52.958;-7.470;2023-04-26T02:05:08;100479.09;;;6.46;100.00
64253;BME280;50592;52.958;-7.470;2023-04-26T02:07:33;100475.00;;;6.42;100.00
64253;BME280;50592;52.958;-7.470;2023-04-26T02:09:59;100481.72;;;6.46;100.00
64253;BME280;50592;52.958;-7.470;2023-04-26T02:12:26;100472.88;;;6.47;100.00
64253;BME280;50592;52.958;-7.470;2023-04-26T02:14:52;100474.34;;;6.51;100.00
64253;BME280;50592;52.958;-7.470;2023-04-26T02:17:18;100471.47;;;6.54;100.00
64253;BME280;50592;52.958;-7.470;2023-04-26T02:19:45;100470.50;;;6.55;100.00
64253;BME280;50592;52.958;-7.470;2023-04-26T02:22:11;100466.22;;;6.54;100.00
64253;BME280;50592;52.958;-7.470;2023-04-26T02:24:40;100469.44;;;6.58;100.00
64253;BME280;50592;52.958;-7.470;2023-04-26T02:27:06;100464.91;;;6.60;100.00
64253;BME280;50592;52.958;-7.470;2023-04-26T02:29:33;100463.69;;;6.64;100.00
64253;BME280;50592;52.958;-7.470;2023-04-26T02:32:01;100463.34;;;6.69;100.00
64253;BME280;50592;52.958;-7.470;2023-04-26T02:34:28;100456.19;;;6.71;100.00
64253;BME280;50592;52.958;-7.470;2023-04-26T02:36:54;100460.16;;;6.77;100.00
64253;BME280;50592;52.958;-7.470;2023-04-26T02:39:21;100463.97;;;6.84;100.00
64253;BME280;50592;52.958;-7.470;2023-04-26T02:41:46;100461.81;;;6.89;100.00
64253;BME280;50592;52.958;-7.470;2023-04-26T02:44:12;100465.63;;;6.97;100.00
64253;BME280;50592;52.958;-7.470;2023-04-26T02:46:38;100455.47;;;7.03;100.00
64253;BME280;50592;52.958;-7.470;2023-04-26T02:49:04;100447.34;;;7.06;100.00
64253;BME280;50592;52.958;-7.470;2023-04-26T02:51:31;100447.00;;;7.11;100.00
64253;BME280;50592;52.958;-7.470;2023-04-26T02:53:58;100450.22;;;7.15;100.00
64253;BME280;50592;52.958;-7.470;2023-04-26T02:56:24;100433.34;;;7.17;100.00
64253;BME280;50592;52.958;-7.470;2023-04-26T02:58:50;100422.84;;;7.17;100.00
64253;BME280;50592;52.958;-7.470;2023-04-26T03:01:16;100430.59;;;7.19;100.00
64253;BME280;50592;52.958;-7.470;2023-04-26T03:03:43;100433.97;;;7.21;100.00
64253;BME280;50592;52.958;-7.470;2023-04-26T03:06:09;100431.19;;;7.23;100.00
64253;BME280;50592;52.958;-7.470;2023-04-26T03:08:34;100426.06;;;7.21;100.00
64253;BME280;50592;52.958;-7.470;2023-04-26T03:11:01;100426.06;;;7.21;100.00
64253;BME280;50592;52.958;-7.470;2023-04-26T03:13:28;100430.38;;;7.11;100.00
64253;BME280;50592;52.958;-7.470;2023-04-26T03:15:55;100421.69;;;6.99;100.00
64253;BME280;50592;52.958;-7.470;2023-04-26T03:18:21;100415.22;;;6.91;100.00
64253;BME280;50592;52.958;-7.470;2023-04-26T03:20:47;100407.69;;;6.87;100.00
64253;BME280;50592;52.958;-7.470;2023-04-26T03:23:13;100403.28;;;6.87;100.00
64253;BME280;50592;52.958;-7.470;2023-04-26T03:25:39;100413.56;;;6.90;100.00
64253;BME280;50592;52.958;-7.470;2023-04-26T03:28:05;100401.25;;;6.91;100.00
64253;BME280;50592;52.958;-7.470;2023-04-26T03:30:31;100396.00;;;6.91;100.00
64253;BME280;50592;52.958;-7.470;2023-04-26T03:32:57;100400.06;;;6.95;100.00
64253;BME280;50592;52.958;-7.470;2023-04-26T03:35:23;100395.41;;;6.99;100.00
64253;BME280;50592;52.958;-7.470;2023-04-26T03:37:49;100400.53;;;7.00;100.00
64253;BME280;50592;52.958;-7.470;2023-04-26T03:40:16;100389.31;;;6.98;100.00
64253;BME280;50592;52.958;-7.470;2023-04-26T03:42:44;100388.56;;;6.96;100.00
64253;BME280;50592;52.958;-7.470;2023-04-26T03:45:10;100393.84;;;6.96;100.00
64253;BME280;50592;52.958;-7.470;2023-04-26T03:47:36;100387.63;;;6.97;100.00
64253;BME280;50592;52.958;-7.470;2023-04-26T03:50:02;100385.94;;;6.96;100.00
64253;BME280;50592;52.958;-7.470;2023-04-26T03:52:29;100380.94;;;6.93;100.00
64253;BME280;50592;52.958;-7.470;2023-04-26T03:54:55;100388.00;;;6.92;100.00
64253;BME280;50592;52.958;-7.470;2023-04-26T03:57:21;100385.63;;;6.89;100.00
64253;BME280;50592;52.958;-7.470;2023-04-26T03:59:46;100388.97;;;6.80;100.00
64253;BME280;50592;52.958;-7.470;2023-04-26T04:02:12;100395.78;;;6.82;100.00
64253;BME280;50592;52.958;-7.470;2023-04-26T04:04:39;100379.28;;;6.80;100.00
64253;BME280;50592;52.958;-7.470;2023-04-26T04:07:05;100382.53;;;6.73;100.00
64253;BME280;50592;52.958;-7.470;2023-04-26T04:09:32;100377.75;;;6.66;100.00
64253;BME280;50592;52.958;-7.470;2023-04-26T04:11:57;100377.50;;;6.58;100.00
64253;BME280;50592;52.958;-7.470;2023-04-26T04:14:24;100374.19;;;6.56;100.00
64253;BME280;50592;52.958;-7.470;2023-04-26T04:16:50;100378.13;;;6.62;100.00
64253;BME280;50592;52.958;-7.470;2023-04-26T04:19:17;100381.34;;;6.65;100.00
64253;BME280;50592;52.958;-7.470;2023-04-26T04:21:43;100375.38;;;6.63;100.00
64253;BME280;50592;52.958;-7.470;2023-04-26T04:24:10;100373.59;;;6.64;100.00
64253;BME280;50592;52.958;-7.470;2023-04-26T04:26:36;100379.91;;;6.61;100.00
64253;BME280;50592;52.958;-7.470;2023-04-26T04:29:02;100370.34;;;6.60;100.00
64253;BME280;50592;52.958;-7.470;2023-04-26T04:31:35;100376.22;;;6.64;100.00
64253;BME280;50592;52.958;-7.470;2023-04-26T04:34:01;100371.66;;;6.66;100.00
64253;BME280;50592;52.958;-7.470;2023-04-26T04:36:27;100373.91;;;6.70;100.00
64253;BME280;50592;52.958;-7.470;2023-04-26T04:38:53;100366.53;;;6.76;100.00
64253;BME280;50592;52.958;-7.470;2023-04-26T04:41:19;100374.03;;;6.80;100.00
64253;BME280;50592;52.958;-7.470;2023-04-26T04:43:47;100373.66;;;6.85;100.00
64253;BME280;50592;52.958;-7.470;2023-04-26T04:46:12;100369.00;;;6.89;100.00
64253;BME280;50592;52.958;-7.470;2023-04-26T04:48:39;100368.78;;;6.92;100.00
64253;BME280;50592;52.958;-7.470;2023-04-26T04:51:05;100364.25;;;6.94;100.00
64253;BME280;50592;52.958;-7.470;2023-04-26T04:53:31;100361.38;;;6.97;100.00
64253;BME280;50592;52.958;-7.470;2023-04-26T04:55:57;100365.91;;;6.95;100.00
64253;BME280;50592;52.958;-7.470;2023-04-26T04:58:23;100367.56;;;6.96;100.00
64253;BME280;50592;52.958;-7.470;2023-04-26T05:00:50;100363.75;;;7.00;100.00
64253;BME280;50592;52.958;-7.470;2023-04-26T05:03:27;100356.91;;;6.98;100.00
64253;BME280;50592;52.958;-7.470;2023-04-26T05:05:53;100361.59;;;6.94;100.00
64253;BME280;50592;52.958;-7.470;2023-04-26T05:08:20;100358.13;;;6.93;100.00
64253;BME280;50592;52.958;-7.470;2023-04-26T05:10:46;100360.03;;;6.91;100.00
64253;BME280;50592;52.958;-7.470;2023-04-26T05:13:12;100355.50;;;6.93;100.00
64253;BME280;50592;52.958;-7.470;2023-04-26T05:15:38;100358.84;;;6.95;100.00
64253;BME280;50592;52.958;-7.470;2023-04-26T05:18:04;100359.78;;;6.94;100.00
64253;BME280;50592;52.958;-7.470;2023-04-26T05:20:31;100357.16;;;6.94;100.00
64253;BME280;50592;52.958;-7.470;2023-04-26T05:22:57;100363.16;;;6.97;100.00
64253;BME280;50592;52.958;-7.470;2023-04-26T05:25:22;100359.44;;;6.99;100.00
64253;BME280;50592;52.958;-7.470;2023-04-26T05:27:53;100362.91;;;7.00;100.00
64253;BME280;50592;52.958;-7.470;2023-04-26T05:30:45;100360.03;;;7.03;100.00
64253;BME280;50592;52.958;-7.470;2023-04-26T05:33:24;100359.91;;;7.04;100.00
64253;BME280;50592;52.958;-7.470;2023-04-26T05:35:55;100357.16;;;7.06;100.00
64253;BME280;50592;52.958;-7.470;2023-04-26T05:38:23;100354.41;;;7.07;100.00
64253;BME280;50592;52.958;-7.470;2023-04-26T05:40:49;100355.25;;;7.08;100.00
64253;BME280;50592;52.958;-7.470;2023-04-26T05:43:15;100348.88;;;7.11;100.00
64253;BME280;50592;52.958;-7.470;2023-04-26T05:45:55;100358.22;;;7.15;100.00
64253;BME280;50592;52.958;-7.470;2023-04-26T05:48:22;100353.22;;;7.12;100.00
64253;BME280;50592;52.958;-7.470;2023-04-26T05:50:49;100359.28;;;7.12;100.00
64253;BME280;50592;52.958;-7.470;2023-04-26T05:53:15;100351.53;;;7.11;100.00
64253;BME280;50592;52.958;-7.470;2023-04-26T05:55:41;100358.34;;;7.13;100.00
64253;BME280;50592;52.958;-7.470;2023-04-26T05:58:08;100356.78;;;7.11;100.00
64253;BME280;50592;52.958;-7.470;2023-04-26T06:00:35;100361.78;;;7.14;100.00
64253;BME280;50592;52.958;-7.470;2023-04-26T06:03:01;100361.09;;;7.12;100.00
64253;BME280;50592;52.958;-7.470;2023-04-26T06:05:28;100364.66;;;7.11;100.00
64253;BME280;50592;52.958;-7.470;2023-04-26T06:07:53;100366.59;;;7.09;100.00
64253;BME280;50592;52.958;-7.470;2023-04-26T06:10:19;100374.47;;;7.09;100.00
64253;BME280;50592;52.958;-7.470;2023-04-26T06:12:45;100375.66;;;7.04;100.00
64253;BME280;50592;52.958;-7.470;2023-04-26T06:15:11;100381.06;;;7.03;100.00
64253;BME280;50592;52.958;-7.470;2023-04-26T06:17:39;100382.13;;;7.00;100.00
64253;BME280;50592;52.958;-7.470;2023-04-26T06:20:05;100380.44;;;6.99;100.00
64253;BME280;50592;52.958;-7.470;2023-04-26T06:22:31;100374.97;;;7.02;100.00
64253;BME280;50592;52.958;-7.470;2023-04-26T06:24:57;100382.00;;;7.13;100.00
64253;BME280;50592;52.958;-7.470;2023-04-26T06:27:23;100377.19;;;7.18;100.00
64253;BME280;50592;52.958;-7.470;2023-04-26T06:29:49;100383.63;;;7.26;100.00
64253;BME280;50592;52.958;-7.470;2023-04-26T06:32:16;100378.94;;;7.29;100.00
64253;BME280;50592;52.958;-7.470;2023-04-26T06:34:42;100385.75;;;7.32;100.00
64253;BME280;50592;52.958;-7.470;2023-04-26T06:37:10;100388.00;;;7.37;100.00
64253;BME280;50592;52.958;-7.470;2023-04-26T06:39:39;100391.13;;;7.42;100.00
64253;BME280;50592;52.958;-7.470;2023-04-26T06:42:05;100399.31;;;7.49;100.00
64253;BME280;50592;52.958;-7.470;2023-04-26T06:44:57;100395.50;;;7.53;100.00
64253;BME280;50592;52.958;-7.470;2023-04-26T06:47:23;100400.16;;;7.49;100.00
64253;BME280;50592;52.958;-7.470;2023-04-26T06:49:49;100399.56;;;7.45;100.00
64253;BME280;50592;52.958;-7.470;2023-04-26T06:52:16;100392.06;;;7.41;100.00
64253;BME280;50592;52.958;-7.470;2023-04-26T06:54:42;100392.66;;;7.44;100.00
64253;BME280;50592;52.958;-7.470;2023-04-26T06:57:07;100393.00;;;7.51;100.00
64253;BME280;50592;52.958;-7.470;2023-04-26T06:59:33;100399.53;;;7.57;100.00
64253;BME280;50592;52.958;-7.470;2023-04-26T07:01:59;100407.03;;;7.62;100.00
64253;BME280;50592;52.958;-7.470;2023-04-26T07:04:26;100401.78;;;7.62;100.00
64253;BME280;50592;52.958;-7.470;2023-04-26T07:06:52;100416.63;;;7.63;100.00
64253;BME280;50592;52.958;-7.470;2023-04-26T07:09:18;100409.53;;;7.63;100.00
64253;BME280;50592;52.958;-7.470;2023-04-26T07:11:47;100407.72;;;7.75;100.00
64253;BME280;50592;52.958;-7.470;2023-04-26T07:14:13;100412.34;;;7.83;100.00
64253;BME280;50592;52.958;-7.470;2023-04-26T07:16:39;100411.56;;;7.92;100.00
64253;BME280;50592;52.958;-7.470;2023-04-26T07:19:05;100412.59;;;8.01;100.00
64253;BME280;50592;52.958;-7.470;2023-04-26T07:21:31;100418.19;;;8.08;100.00
64253;BME280;50592;52.958;-7.470;2023-04-26T07:23:57;100416.59;;;8.17;100.00
64253;BME280;50592;52.958;-7.470;2023-04-26T07:26:23;100411.75;;;8.22;100.00
64253;BME280;50592;52.958;-7.470;2023-04-26T07:28:51;100415.81;;;8.26;100.00
64253;BME280;50592;52.958;-7.470;2023-04-26T07:31:20;100421.63;;;8.30;100.00
64253;BME280;50592;52.958;-7.470;2023-04-26T07:33:45;100425.13;;;8.30;100.00
64253;BME280;50592;52.958;-7.470;2023-04-26T07:36:11;100413.34;;;8.35;100.00
64253;BME280;50592;52.958;-7.470;2023-04-26T07:38:37;100414.91;;;8.37;100.00
64253;BME280;50592;52.958;-7.470;2023-04-26T07:41:03;100413.06;;;8.38;100.00
64253;BME280;50592;52.958;-7.470;2023-04-26T07:43:29;100417.53;;;8.37;100.00
64253;BME280;50592;52.958;-7.470;2023-04-26T07:46:00;100409.09;;;8.43;100.00
64253;BME280;50592;52.958;-7.470;2023-04-26T07:48:27;100413.41;;;8.44;100.00
64253;BME280;50592;52.958;-7.470;2023-04-26T07:50:53;100400.81;;;8.48;100.00
64253;BME280;50592;52.958;-7.470;2023-04-26T07:53:20;100407.72;;;8.49;100.00
64253;BME280;50592;52.958;-7.470;2023-04-26T07:55:46;100405.38;;;8.46;100.00
64253;BME280;50592;52.958;-7.470;2023-04-26T07:58:12;100405.81;;;8.51;100.00
64253;BME280;50592;52.958;-7.470;2023-04-26T08:00:42;100401.44;;;8.62;100.00
64253;BME280;50592;52.958;-7.470;2023-04-26T08:03:07;100398.66;;;8.63;100.00
64253;BME280;50592;52.958;-7.470;2023-04-26T08:05:34;100394.25;;;8.64;100.00
64253;BME280;50592;52.958;-7.470;2023-04-26T08:07:59;100397.47;;;8.67;100.00
64253;BME280;50592;52.958;-7.470;2023-04-26T08:10:28;100403.97;;;8.73;100.00
64253;BME280;50592;52.958;-7.470;2023-04-26T08:12:54;100403.31;;;8.81;100.00
64253;BME280;50592;52.958;-7.470;2023-04-26T08:15:21;100404.59;;;8.87;100.00
64253;BME280;50592;52.958;-7.470;2023-04-26T08:17:47;100410.00;;;8.85;100.00
64253;BME280;50592;52.958;-7.470;2023-04-26T08:20:17;100416.13;;;8.96;100.00
64253;BME280;50592;52.958;-7.470;2023-04-26T08:22:43;100415.19;;;9.06;100.00
64253;BME280;50592;52.958;-7.470;2023-04-26T08:25:09;100411.88;;;9.14;100.00
64253;BME280;50592;52.958;-7.470;2023-04-26T08:27:35;100399.94;;;9.20;100.00
64253;BME280;50592;52.958;-7.470;2023-04-26T08:30:01;100397.59;;;9.27;100.00
64253;BME280;50592;52.958;-7.470;2023-04-26T08:32:29;100401.22;;;9.46;100.00
64253;BME280;50592;52.958;-7.470;2023-04-26T08:34:55;100400.97;;;9.59;100.00
64253;BME280;50592;52.958;-7.470;2023-04-26T08:37:21;100396.34;;;9.61;100.00
64253;BME280;50592;52.958;-7.470;2023-04-26T08:39:46;100393.84;;;9.59;100.00
64253;BME280;50592;52.958;-7.470;2023-04-26T08:42:14;100401.78;;;9.59;100.00
64253;BME280;50592;52.958;-7.470;2023-04-26T08:44:41;100395.81;;;9.57;100.00
64253;BME280;50592;52.958;-7.470;2023-04-26T08:47:13;100398.84;;;9.62;100.00
64253;BME280;50592;52.958;-7.470;2023-04-26T08:49:42;100395.25;;;9.63;100.00
64253;BME280;50592;52.958;-7.470;2023-04-26T08:52:10;100396.06;;;9.64;100.00
64253;BME280;50592;52.958;-7.470;2023-04-26T08:54:38;100403.44;;;9.70;100.00
64253;BME280;50592;52.958;-7.470;2023-04-26T08:57:05;100405.53;;;9.66;100.00
64253;BME280;50592;52.958;-7.470;2023-04-26T08:59:33;100404.56;;;9.67;100.00
64253;BME280;50592;52.958;-7.470;2023-04-26T09:02:04;100401.50;;;9.72;100.00
64253;BME280;50592;52.958;-7.470;2023-04-26T09:04:30;100400.09;;;9.78;100.00
64253;BME280;50592;52.958;-7.470;2023-04-26T09:07:01;100394.13;;;9.86;100.00
64253;BME280;50592;52.958;-7.470;2023-04-26T09:09:33;100403.56;;;9.88;100.00
64253;BME280;50592;52.958;-7.470;2023-04-26T09:12:00;100395.66;;;9.88;100.00
64253;BME280;50592;52.958;-7.470;2023-04-26T09:14:28;100397.03;;;9.83;100.00
64253;BME280;50592;52.958;-7.470;2023-04-26T09:16:54;100392.88;;;9.80;100.00
64253;BME280;50592;52.958;-7.470;2023-04-26T09:19:39;100393.72;;;9.90;100.00
64253;BME280;50592;52.958;-7.470;2023-04-26T09:22:07;100396.59;;;9.97;100.00
64253;BME280;50592;52.958;-7.470;2023-04-26T09:24:51;100400.50;;;10.13;100.00
64253;BME280;50592;52.958;-7.470;2023-04-26T09:27:18;100390.72;;;10.23;100.00
64253;BME280;50592;52.958;-7.470;2023-04-26T09:30:04;100396.75;;;10.43;100.00
64253;BME280;50592;52.958;-7.470;2023-04-26T09:32:47;100398.56;;;10.53;100.00
64253;BME280;50592;52.958;-7.470;2023-04-26T09:35:31;100401.53;;;10.78;100.00
64253;BME280;50592;52.958;-7.470;2023-04-26T09:40:26;100391.03;;;10.86;100.00
64253;BME280;50592;52.958;-7.470;2023-04-26T09:42:57;100398.31;;;10.84;100.00
64253;BME280;50592;52.958;-7.470;2023-04-26T09:45:24;100389.78;;;10.90;100.00
64253;BME280;50592;52.958;-7.470;2023-04-26T09:47:51;100389.53;;;10.84;100.00
64253;BME280;50592;52.958;-7.470;2023-04-26T09:50:30;100377.00;;;10.86;100.00
64253;BME280;50592;52.958;-7.470;2023-04-26T09:52:56;100387.88;;;10.83;100.00
64253;BME280;50592;52.958;-7.470;2023-04-26T09:55:27;100378.06;;;10.93;100.00
64253;BME280;50592;52.958;-7.470;2023-04-26T09:57:57;100382.47;;;11.02;100.00
64253;BME280;50592;52.958;-7.470;2023-04-26T10:00:26;100376.13;;;11.13;100.00
64253;BME280;50592;52.958;-7.470;2023-04-26T10:02:53;100379.06;;;11.10;100.00
64253;BME280;50592;52.958;-7.470;2023-04-26T10:05:20;100379.75;;;11.12;100.00
64253;BME280;50592;52.958;-7.470;2023-04-26T10:07:47;100372.88;;;11.20;100.00
64253;BME280;50592;52.958;-7.470;2023-04-26T10:10:12;100373.03;;;11.36;100.00
64253;BME280;50592;52.958;-7.470;2023-04-26T10:12:40;100372.06;;;11.56;100.00
64253;BME280;50592;52.958;-7.470;2023-04-26T10:15:10;100372.63;;;11.68;100.00
64253;BME280;50592;52.958;-7.470;2023-04-26T10:17:37;100374.16;;;11.70;100.00
64253;BME280;50592;52.958;-7.470;2023-04-26T10:20:05;100376.84;;;11.78;100.00
64253;BME280;50592;52.958;-7.470;2023-04-26T10:22:36;100381.97;;;11.98;100.00
64253;BME280;50592;52.958;-7.470;2023-04-26T10:25:07;100374.25;;;12.05;100.00
64253;BME280;50592;52.958;-7.470;2023-04-26T10:30:19;100375.19;;;11.96;100.00
64253;BME280;50592;52.958;-7.470;2023-04-26T10:35:21;100372.19;;;12.17;100.00
64253;BME280;50592;52.958;-7.470;2023-04-26T10:38:16;100364.97;;;12.27;100.00
64253;BME280;50592;52.958;-7.470;2023-04-26T10:40:42;100370.41;;;12.26;100.00
64253;BME280;50592;52.958;-7.470;2023-04-26T10:45:41;100365.47;;;12.31;100.00
64253;BME280;50592;52.958;-7.470;2023-04-26T10:48:36;100364.81;;;12.29;100.00
64253;BME280;50592;52.958;-7.470;2023-04-26T10:59:05;100358.97;;;11.99;100.00
64253;BME280;50592;52.958;-7.470;2023-04-26T11:01:32;100371.53;;;11.97;100.00
64253;BME280;50592;52.958;-7.470;2023-04-26T11:06:24;100367.94;;;12.06;100.00
64253;BME280;50592;52.958;-7.470;2023-04-26T11:08:50;100372.34;;;12.15;100.00
64253;BME280;50592;52.958;-7.470;2023-04-26T11:11:16;100369.69;;;12.15;100.00
64253;BME280;50592;52.958;-7.470;2023-04-26T11:13:45;100373.50;;;12.13;100.00
64253;BME280;50592;52.958;-7.470;2023-04-26T11:16:13;100373.56;;;12.03;100.00
64253;BME280;50592;52.958;-7.470;2023-04-26T11:18:41;100372.06;;;12.00;100.00
64253;BME280;50592;52.958;-7.470;2023-04-26T11:21:07;100371.59;;;12.05;100.00
64253;BME280;50592;52.958;-7.470;2023-04-26T11:23:33;100376.34;;;12.01;100.00
64253;BME280;50592;52.958;-7.470;2023-04-26T11:26:04;100373.72;;;12.01;100.00
64253;BME280;50592;52.958;-7.470;2023-04-26T11:28:32;100371.22;;;12.00;100.00
64253;BME280;50592;52.958;-7.470;2023-04-26T11:30:58;100371.31;;;12.08;100.00
64253;BME280;50592;52.958;-7.470;2023-04-26T11:33:24;100374.47;;;12.12;99.49
64253;BME280;50592;52.958;-7.470;2023-04-26T11:35:53;100375.97;;;12.14;100.00
64253;BME280;50592;52.958;-7.470;2023-04-26T11:38:24;100375.03;;;12.24;99.84
64253;BME280;50592;52.958;-7.470;2023-04-26T11:43:36;100368.38;;;12.46;100.00
64253;BME280;50592;52.958;-7.470;2023-04-26T11:46:06;100364.06;;;12.45;100.00
64253;BME280;50592;52.958;-7.470;2023-04-26T11:48:33;100369.53;;;12.52;100.00
64253;BME280;50592;52.958;-7.470;2023-04-26T11:51:02;100369.16;;;12.38;97.44
64253;BME280;50592;52.958;-7.470;2023-04-26T11:56:04;100374.03;;;12.25;100.00
64253;BME280;50592;52.958;-7.470;2023-04-26T11:58:30;100384.78;;;12.23;100.00
64253;BME280;50592;52.958;-7.470;2023-04-26T12:03:23;100385.84;;;12.31;100.00
64253;BME280;50592;52.958;-7.470;2023-04-26T12:05:53;100391.97;;;12.31;100.00
64253;BME280;50592;52.958;-7.470;2023-04-26T12:08:26;100382.84;;;12.25;100.00
64253;BME280;50592;52.958;-7.470;2023-04-26T12:10:52;100374.88;;;12.25;100.00
64253;BME280;50592;52.958;-7.470;2023-04-26T12:13:18;100370.75;;;12.31;100.00
64253;BME280;50592;52.958;-7.470;2023-04-26T12:15:45;100372.50;;;12.40;100.00
64253;BME280;50592;52.958;-7.470;2023-04-26T12:18:12;100367.34;;;12.47;100.00
64253;BME280;50592;52.958;-7.470;2023-04-26T12:20:39;100369.38;;;12.45;100.00
64253;BME280;50592;52.958;-7.470;2023-04-26T12:23:07;100364.69;;;12.39;100.00
64253;BME280;50592;52.958;-7.470;2023-04-26T12:25:35;100374.78;;;12.35;100.00
64253;BME280;50592;52.958;-7.470;2023-04-26T12:28:07;100368.63;;;12.35;100.00
64253;BME280;50592;52.958;-7.470;2023-04-26T12:30:37;100362.03;;;12.39;100.00
64253;BME280;50592;52.958;-7.470;2023-04-26T12:33:03;100368.56;;;12.26;100.00
64253;BME280;50592;52.958;-7.470;2023-04-26T12:35:30;100366.25;;;12.23;100.00
64253;BME280;50592;52.958;-7.470;2023-04-26T12:37:57;100359.19;;;12.32;100.00
64253;BME280;50592;52.958;-7.470;2023-04-26T12:40:26;100354.75;;;12.41;100.00
64253;BME280;50592;52.958;-7.470;2023-04-26T12:42:52;100360.78;;;12.51;100.00
64253;BME280;50592;52.958;-7.470;2023-04-26T12:45:24;100355.00;;;12.56;100.00
64253;BME280;50592;52.958;-7.470;2023-04-26T12:47:52;100357.63;;;12.56;100.00
64253;BME280;50592;52.958;-7.470;2023-04-26T12:50:19;100352.28;;;12.48;100.00
64253;BME280;50592;52.958;-7.470;2023-04-26T12:52:45;100351.00;;;12.60;100.00
64253;BME280;50592;52.958;-7.470;2023-04-26T12:55:15;100348.06;;;12.72;100.00
64253;BME280;50592;52.958;-7.470;2023-04-26T12:57:42;100351.41;;;12.74;100.00
64253;BME280;50592;52.958;-7.470;2023-04-26T13:00:15;100350.59;;;12.90;100.00
64253;BME280;50592;52.958;-7.470;2023-04-26T13:02:46;100356.25;;;12.95;100.00
64253;BME280;50592;52.958;-7.470;2023-04-26T13:05:11;100348.16;;;13.05;100.00
64253;BME280;50592;52.958;-7.470;2023-04-26T13:07:41;100353.81;;;13.10;100.00